Alama Iqbal International Airport
OPLA : now visible

Airfield :











YOU CAN JOIN US ON...

 
LOGIN :

Register | Disclaimer

   EN    FR    IT 

 









Legend :    VFR   Marginal VFR   IFR   Intensive IFR   Very Intensive IFR
Visi :
Ceiling :
>= 8 km
>= 3000ft
5 to 8 km
1000 to 3000 ft
1500m to 5 km
500 to 1000 ft
800 to 1500m
200 to 500 ft
< 800m
< 200 ft
Symbols :   Thunderstorms  Fog  Heavy snow  Heavy precipitations  Wind > 20 kt






- Airport Elevation : 712 ft
- IATA code : LHE


OPLA - Alama Iqbal International

CURRENT METAR :
  • 222255Z 00000KT 4000 FU NSC 29/21 Q1001 NOSIG RMK QFE973 RMK A29.57

EXPIRED METARs :
  • 222225Z 00000KT 4000 FU NSC 29/21 Q1000 RMK QFE973 RMK A29.56
  • 222155Z 00000KT 4000 FU NSC 29/21 Q1000 NOSIG RMK QFE973 RMK A29.56
  • 222125Z 00000KT 4000 FU NSC 29/21 Q1000 RMK QFE973 RMK A29.56
  • 222055Z 00000KT 4000 FU NSC 29/21 Q1000 NOSIG RMK QFE973 RMK A29.56

TAF TAF OPLA
Valid from the 23 at 00:00 until the 24 at 06:00 UTC


222145Z 2300/2406 31004KT 4000 FU NSC TX37/2310Z TN27/2400Z
PROB30
TEMPO 2401/2405 00000KT 2000 BR
OPLR FIR / Asia



MET'MAP, your aeronautical weather chart ! - Copyright ORBIFLY December 2007 - Disclaimer

ORBIFLY MET'MAP TEAM :

Programming & Development : Alexandra Zaïnal
Concept & original design : Baudouin d'Aumeries
Assistance for programming : Marc-Olivier Méhu
Technical & hardware support : Manuel Goepfert

Contact : metmap@orbifly.com




SOURCES & CREDITS :

   NOAA       Earth
Advisory